Terminal Aerodrome Forecast
Issued by NWS

Home | Current Version | Previous Version | Graphics & Text | Print | Product List | Glossary On
Versions: 1 2 3 4 5 6 7 8 9 10 11 12 13 14 15 16 17 18 19 20
257
FTUS43 KGRB 241134
TAFCWA
TAF
KCWA 241134Z 2412/2512 11007KT P6SM VCSH SCT015 OVC025
      TEMPO 2412/2416 BKN015
     FM241600 13009KT P6SM BKN035 OVC060
     FM250600 13007KT P6SM SCT025 OVC035 PROB30 2508/2512 6SM -SHRA
      BKN025=

USA.gov is the U.S. government's official web portal to all federal, state and local government web resources and services.